sensor_id;sensor_type;location;lat;lon;timestamp;pressure;altitude;pressure_sealevel;temperature;humidity
35577;BME280;21680;52.400;16.920;2023-08-31T00:00:43;99870.02;;;14.17;100.00
35577;BME280;21680;52.400;16.920;2023-08-31T00:03:08;99871.51;;;14.17;100.00
35577;BME280;21680;52.400;16.920;2023-08-31T00:05:42;99873.08;;;14.15;100.00
35577;BME280;21680;52.400;16.920;2023-08-31T00:08:08;99872.35;;;14.12;100.00
35577;BME280;21680;52.400;16.920;2023-08-31T00:10:37;99875.21;;;14.10;100.00
35577;BME280;21680;52.400;16.920;2023-08-31T00:13:04;99879.91;;;14.10;100.00
35577;BME280;21680;52.400;16.920;2023-08-31T00:15:29;99874.73;;;14.09;100.00
35577;BME280;21680;52.400;16.920;2023-08-31T00:17:58;99880.41;;;14.08;100.00
35577;BME280;21680;52.400;16.920;2023-08-31T00:20:23;99880.19;;;14.08;100.00
35577;BME280;21680;52.400;16.920;2023-08-31T00:22:48;99880.49;;;14.09;100.00
35577;BME280;21680;52.400;16.920;2023-08-31T00:25:14;99881.54;;;14.10;100.00
35577;BME280;21680;52.400;16.920;2023-08-31T00:27:40;99884.61;;;14.09;100.00
35577;BME280;21680;52.400;16.920;2023-08-31T00:30:07;99883.52;;;14.10;100.00
35577;BME280;21680;52.400;16.920;2023-08-31T00:32:37;99881.08;;;14.11;100.00
35577;BME280;21680;52.400;16.920;2023-08-31T00:35:05;99879.27;;;14.11;100.00
35577;BME280;21680;52.400;16.920;2023-08-31T00:37:30;99874.48;;;14.13;100.00
35577;BME280;21680;52.400;16.920;2023-08-31T00:39:56;99872.87;;;14.15;100.00
35577;BME280;21680;52.400;16.920;2023-08-31T00:42:21;99876.36;;;14.17;100.00
35577;BME280;21680;52.400;16.920;2023-08-31T00:44:47;99872.77;;;14.16;100.00
35577;BME280;21680;52.400;16.920;2023-08-31T00:47:13;99873.45;;;14.17;100.00
35577;BME280;21680;52.400;16.920;2023-08-31T00:49:40;99873.54;;;14.16;100.00
35577;BME280;21680;52.400;16.920;2023-08-31T00:52:06;99875.23;;;14.14;100.00
35577;BME280;21680;52.400;16.920;2023-08-31T00:54:32;99877.02;;;14.15;100.00
35577;BME280;21680;52.400;16.920;2023-08-31T00:56:58;99872.71;;;14.15;100.00
35577;BME280;21680;52.400;16.920;2023-08-31T00:59:23;99872.00;;;14.15;100.00
35577;BME280;21680;52.400;16.920;2023-08-31T01:01:55;99871.10;;;14.15;100.00
35577;BME280;21680;52.400;16.920;2023-08-31T01:07:17;99866.05;;;14.17;100.00
35577;BME280;21680;52.400;16.920;2023-08-31T01:12:29;99855.29;;;14.22;100.00
35577;BME280;21680;52.400;16.920;2023-08-31T01:15:03;99852.45;;;14.24;100.00
35577;BME280;21680;52.400;16.920;2023-08-31T01:17:30;99850.38;;;14.23;100.00
35577;BME280;21680;52.400;16.920;2023-08-31T01:19:58;99848.63;;;14.22;100.00
35577;BME280;21680;52.400;16.920;2023-08-31T01:22:43;99847.59;;;14.22;100.00
35577;BME280;21680;52.400;16.920;2023-08-31T01:25:12;99847.95;;;14.22;100.00
35577;BME280;21680;52.400;16.920;2023-08-31T01:27:38;99848.44;;;14.20;100.00
35577;BME280;21680;52.400;16.920;2023-08-31T01:30:04;99847.80;;;14.17;100.00
35577;BME280;21680;52.400;16.920;2023-08-31T01:32:31;99840.39;;;14.14;100.00
35577;BME280;21680;52.400;16.920;2023-08-31T01:34:56;99840.11;;;14.13;100.00
35577;BME280;21680;52.400;16.920;2023-08-31T01:37:32;99841.36;;;14.11;100.00
35577;BME280;21680;52.400;16.920;2023-08-31T01:40:06;99844.27;;;14.08;100.00
35577;BME280;21680;52.400;16.920;2023-08-31T01:42:36;99836.98;;;14.07;100.00
35577;BME280;21680;52.400;16.920;2023-08-31T01:45:01;99834.64;;;14.07;100.00
35577;BME280;21680;52.400;16.920;2023-08-31T01:47:29;99835.25;;;14.06;100.00
35577;BME280;21680;52.400;16.920;2023-08-31T01:49:55;99841.91;;;14.04;100.00
35577;BME280;21680;52.400;16.920;2023-08-31T01:52:21;99843.30;;;14.02;100.00
35577;BME280;21680;52.400;16.920;2023-08-31T01:54:46;99842.98;;;14.01;100.00
35577;BME280;21680;52.400;16.920;2023-08-31T01:57:11;99844.90;;;13.99;100.00
35577;BME280;21680;52.400;16.920;2023-08-31T01:59:36;99840.27;;;13.98;100.00
35577;BME280;21680;52.400;16.920;2023-08-31T02:02:02;99843.61;;;13.97;100.00
35577;BME280;21680;52.400;16.920;2023-08-31T02:04:27;99842.25;;;13.93;100.00
35577;BME280;21680;52.400;16.920;2023-08-31T02:06:52;99845.95;;;13.89;100.00
35577;BME280;21680;52.400;16.920;2023-08-31T02:09:18;99845.18;;;13.87;100.00
35577;BME280;21680;52.400;16.920;2023-08-31T02:11:43;99847.63;;;13.85;100.00
35577;BME280;21680;52.400;16.920;2023-08-31T02:14:08;99849.10;;;13.85;100.00
35577;BME280;21680;52.400;16.920;2023-08-31T02:16:34;99849.67;;;13.84;100.00
35577;BME280;21680;52.400;16.920;2023-08-31T02:18:59;99850.80;;;13.84;100.00
35577;BME280;21680;52.400;16.920;2023-08-31T02:21:25;99849.95;;;13.83;100.00
35577;BME280;21680;52.400;16.920;2023-08-31T02:23:50;99846.92;;;13.83;100.00
35577;BME280;21680;52.400;16.920;2023-08-31T02:26:15;99848.02;;;13.83;100.00
35577;BME280;21680;52.400;16.920;2023-08-31T02:28:41;99847.70;;;13.82;100.00
35577;BME280;21680;52.400;16.920;2023-08-31T02:31:06;99848.38;;;13.80;100.00
35577;BME280;21680;52.400;16.920;2023-08-31T02:33:31;99852.27;;;13.78;100.00
35577;BME280;21680;52.400;16.920;2023-08-31T02:35:57;99846.14;;;13.76;100.00
35577;BME280;21680;52.400;16.920;2023-08-31T02:38:22;99841.91;;;13.75;100.00
35577;BME280;21680;52.400;16.920;2023-08-31T02:40:48;99838.73;;;13.71;100.00
35577;BME280;21680;52.400;16.920;2023-08-31T02:43:14;99843.05;;;13.69;100.00
35577;BME280;21680;52.400;16.920;2023-08-31T02:45:39;99847.38;;;13.69;100.00
35577;BME280;21680;52.400;16.920;2023-08-31T02:48:06;99849.46;;;13.67;100.00
35577;BME280;21680;52.400;16.920;2023-08-31T02:50:34;99853.15;;;13.66;100.00
35577;BME280;21680;52.400;16.920;2023-08-31T02:52:59;99854.41;;;13.63;100.00
35577;BME280;21680;52.400;16.920;2023-08-31T02:55:24;99855.79;;;13.61;100.00
35577;BME280;21680;52.400;16.920;2023-08-31T02:57:50;99852.74;;;13.61;100.00
35577;BME280;21680;52.400;16.920;2023-08-31T03:00:15;99849.52;;;13.58;100.00
35577;BME280;21680;52.400;16.920;2023-08-31T03:02:41;99846.77;;;13.57;100.00
35577;BME280;21680;52.400;16.920;2023-08-31T03:05:08;99848.34;;;13.55;100.00
35577;BME280;21680;52.400;16.920;2023-08-31T03:07:34;99852.59;;;13.52;100.00
35577;BME280;21680;52.400;16.920;2023-08-31T03:09:59;99855.34;;;13.52;100.00
35577;BME280;21680;52.400;16.920;2023-08-31T03:12:24;99854.02;;;13.50;100.00
35577;BME280;21680;52.400;16.920;2023-08-31T03:14:49;99856.89;;;13.50;100.00
35577;BME280;21680;52.400;16.920;2023-08-31T03:17:15;99855.29;;;13.50;100.00
35577;BME280;21680;52.400;16.920;2023-08-31T03:19:41;99849.81;;;13.49;100.00
35577;BME280;21680;52.400;16.920;2023-08-31T03:22:06;99851.66;;;13.48;100.00
35577;BME280;21680;52.400;16.920;2023-08-31T03:24:35;99848.83;;;13.48;100.00
35577;BME280;21680;52.400;16.920;2023-08-31T03:27:00;99843.76;;;13.46;100.00
35577;BME280;21680;52.400;16.920;2023-08-31T03:29:25;99845.27;;;13.45;100.00
35577;BME280;21680;52.400;16.920;2023-08-31T03:31:50;99846.68;;;13.45;100.00
35577;BME280;21680;52.400;16.920;2023-08-31T03:34:16;99844.36;;;13.45;100.00
35577;BME280;21680;52.400;16.920;2023-08-31T03:36:41;99846.77;;;13.44;100.00
35577;BME280;21680;52.400;16.920;2023-08-31T03:39:06;99847.83;;;13.42;100.00
35577;BME280;21680;52.400;16.920;2023-08-31T03:41:31;99843.99;;;13.40;100.00
35577;BME280;21680;52.400;16.920;2023-08-31T03:43:57;99847.73;;;13.40;100.00
35577;BME280;21680;52.400;16.920;2023-08-31T03:46:22;99848.31;;;13.40;100.00
35577;BME280;21680;52.400;16.920;2023-08-31T03:48:47;99849.89;;;13.37;100.00
35577;BME280;21680;52.400;16.920;2023-08-31T03:51:12;99848.88;;;13.37;100.00
35577;BME280;21680;52.400;16.920;2023-08-31T03:53:38;99843.58;;;13.35;100.00
35577;BME280;21680;52.400;16.920;2023-08-31T03:56:03;99841.48;;;13.34;100.00
35577;BME280;21680;52.400;16.920;2023-08-31T03:58:30;99840.97;;;13.34;100.00
35577;BME280;21680;52.400;16.920;2023-08-31T04:00:56;99837.30;;;13.32;100.00
35577;BME280;21680;52.400;16.920;2023-08-31T04:03:21;99834.70;;;13.31;100.00
35577;BME280;21680;52.400;16.920;2023-08-31T04:05:47;99838.20;;;13.29;100.00
35577;BME280;21680;52.400;16.920;2023-08-31T04:08:13;99838.95;;;13.29;100.00
35577;BME280;21680;52.400;16.920;2023-08-31T04:10:38;99837.69;;;13.29;100.00
35577;BME280;21680;52.400;16.920;2023-08-31T04:13:03;99841.61;;;13.29;100.00
35577;BME280;21680;52.400;16.920;2023-08-31T04:15:29;99841.72;;;13.30;100.00
35577;BME280;21680;52.400;16.920;2023-08-31T04:17:56;99838.51;;;13.30;100.00
35577;BME280;21680;52.400;16.920;2023-08-31T04:20:21;99839.90;;;13.31;100.00
35577;BME280;21680;52.400;16.920;2023-08-31T04:22:47;99840.21;;;13.31;100.00
35577;BME280;21680;52.400;16.920;2023-08-31T04:25:13;99840.34;;;13.32;100.00
35577;BME280;21680;52.400;16.920;2023-08-31T04:27:38;99835.48;;;13.32;100.00
35577;BME280;21680;52.400;16.920;2023-08-31T04:30:06;99835.77;;;13.34;100.00
35577;BME280;21680;52.400;16.920;2023-08-31T04:32:32;99836.86;;;13.34;100.00
35577;BME280;21680;52.400;16.920;2023-08-31T04:34:58;99834.03;;;13.33;100.00
35577;BME280;21680;52.400;16.920;2023-08-31T04:37:23;99837.39;;;13.31;100.00
35577;BME280;21680;52.400;16.920;2023-08-31T04:39:48;99837.30;;;13.29;100.00
35577;BME280;21680;52.400;16.920;2023-08-31T04:42:14;99837.21;;;13.31;100.00
35577;BME280;21680;52.400;16.920;2023-08-31T04:44:41;99837.71;;;13.31;100.00
35577;BME280;21680;52.400;16.920;2023-08-31T04:47:06;99843.51;;;13.33;100.00
35577;BME280;21680;52.400;16.920;2023-08-31T04:49:32;99849.09;;;13.33;100.00
35577;BME280;21680;52.400;16.920;2023-08-31T04:51:57;99851.06;;;13.30;100.00
35577;BME280;21680;52.400;16.920;2023-08-31T04:54:22;99850.02;;;13.30;100.00
35577;BME280;21680;52.400;16.920;2023-08-31T04:56:48;99854.20;;;13.29;100.00
35577;BME280;21680;52.400;16.920;2023-08-31T04:59:13;99855.52;;;13.28;100.00
35577;BME280;21680;52.400;16.920;2023-08-31T05:01:38;99855.81;;;13.29;100.00
35577;BME280;21680;52.400;16.920;2023-08-31T05:04:04;99861.16;;;13.30;100.00
35577;BME280;21680;52.400;16.920;2023-08-31T05:06:29;99858.70;;;13.29;100.00
35577;BME280;21680;52.400;16.920;2023-08-31T05:08:54;99864.38;;;13.30;100.00
35577;BME280;21680;52.400;16.920;2023-08-31T05:11:19;99865.59;;;13.30;100.00
35577;BME280;21680;52.400;16.920;2023-08-31T05:13:45;99864.20;;;13.32;100.00
35577;BME280;21680;52.400;16.920;2023-08-31T05:16:10;99859.58;;;13.35;100.00
35577;BME280;21680;52.400;16.920;2023-08-31T05:18:37;99862.31;;;13.37;100.00
35577;BME280;21680;52.400;16.920;2023-08-31T05:21:03;99868.38;;;13.40;100.00
35577;BME280;21680;52.400;16.920;2023-08-31T05:23:28;99863.52;;;13.43;100.00
35577;BME280;21680;52.400;16.920;2023-08-31T05:25:54;99862.76;;;13.46;100.00
35577;BME280;21680;52.400;16.920;2023-08-31T05:28:22;99860.61;;;13.49;100.00
35577;BME280;21680;52.400;16.920;2023-08-31T05:30:55;99859.84;;;13.52;100.00
35577;BME280;21680;52.400;16.920;2023-08-31T05:33:20;99860.06;;;13.57;100.00
35577;BME280;21680;52.400;16.920;2023-08-31T05:35:47;99857.30;;;13.63;100.00
35577;BME280;21680;52.400;16.920;2023-08-31T05:38:13;99851.92;;;13.70;100.00
35577;BME280;21680;52.400;16.920;2023-08-31T05:40:38;99853.13;;;13.79;100.00
35577;BME280;21680;52.400;16.920;2023-08-31T05:43:04;99855.23;;;13.87;100.00
35577;BME280;21680;52.400;16.920;2023-08-31T05:45:33;99859.27;;;13.96;100.00
35577;BME280;21680;52.400;16.920;2023-08-31T05:47:58;99858.58;;;14.04;100.00
35577;BME280;21680;52.400;16.920;2023-08-31T05:50:24;99864.59;;;14.13;100.00
35577;BME280;21680;52.400;16.920;2023-08-31T05:52:49;99871.20;;;14.21;100.00
35577;BME280;21680;52.400;16.920;2023-08-31T05:55:14;99876.95;;;14.28;100.00
35577;BME280;21680;52.400;16.920;2023-08-31T05:57:39;99880.41;;;14.35;100.00
35577;BME280;21680;52.400;16.920;2023-08-31T06:00:06;99882.77;;;14.40;100.00
35577;BME280;21680;52.400;16.920;2023-08-31T06:02:33;99882.91;;;14.46;100.00
35577;BME280;21680;52.400;16.920;2023-08-31T06:04:58;99878.84;;;14.52;100.00
35577;BME280;21680;52.400;16.920;2023-08-31T06:07:23;99880.15;;;14.59;100.00
35577;BME280;21680;52.400;16.920;2023-08-31T06:09:49;99888.20;;;14.65;100.00
35577;BME280;21680;52.400;16.920;2023-08-31T06:12:14;99892.23;;;14.71;100.00
35577;BME280;21680;52.400;16.920;2023-08-31T06:14:39;99899.43;;;14.76;100.00
35577;BME280;21680;52.400;16.920;2023-08-31T06:17:04;99897.21;;;14.77;100.00
35577;BME280;21680;52.400;16.920;2023-08-31T06:19:30;99903.66;;;14.77;100.00
35577;BME280;21680;52.400;16.920;2023-08-31T06:21:55;99907.35;;;14.79;100.00
35577;BME280;21680;52.400;16.920;2023-08-31T06:24:20;99906.30;;;14.81;100.00
35577;BME280;21680;52.400;16.920;2023-08-31T06:26:45;99909.95;;;14.80;100.00
35577;BME280;21680;52.400;16.920;2023-08-31T06:29:10;99914.02;;;14.78;100.00
35577;BME280;21680;52.400;16.920;2023-08-31T06:31:36;99904.41;;;14.75;100.00
35577;BME280;21680;52.400;16.920;2023-08-31T06:34:02;99904.92;;;14.73;100.00
35577;BME280;21680;52.400;16.920;2023-08-31T06:36:29;99903.02;;;14.74;100.00
35577;BME280;21680;52.400;16.920;2023-08-31T06:38:55;99902.64;;;14.74;100.00
35577;BME280;21680;52.400;16.920;2023-08-31T06:41:20;99916.61;;;14.80;100.00
35577;BME280;21680;52.400;16.920;2023-08-31T06:43:45;99920.85;;;14.83;100.00
35577;BME280;21680;52.400;16.920;2023-08-31T06:46:11;99925.63;;;14.84;100.00
35577;BME280;21680;52.400;16.920;2023-08-31T06:48:36;99930.73;;;14.83;100.00
35577;BME280;21680;52.400;16.920;2023-08-31T06:51:02;99931.38;;;14.87;100.00
35577;BME280;21680;52.400;16.920;2023-08-31T06:53:29;99928.36;;;14.94;100.00
35577;BME280;21680;52.400;16.920;2023-08-31T06:55:54;99931.88;;;15.02;100.00
35577;BME280;21680;52.400;16.920;2023-08-31T06:58:19;99936.41;;;15.11;100.00
35577;BME280;21680;52.400;16.920;2023-08-31T07:00:45;99949.22;;;15.18;100.00
35577;BME280;21680;52.400;16.920;2023-08-31T07:03:10;99948.42;;;15.17;100.00
35577;BME280;21680;52.400;16.920;2023-08-31T07:05:41;99950.07;;;15.17;100.00
35577;BME280;21680;52.400;16.920;2023-08-31T07:08:07;99946.61;;;15.17;100.00
35577;BME280;21680;52.400;16.920;2023-08-31T07:10:33;99946.98;;;15.22;100.00
35577;BME280;21680;52.400;16.920;2023-08-31T07:13:01;99937.79;;;15.22;100.00
35577;BME280;21680;52.400;16.920;2023-08-31T07:15:27;99939.16;;;15.26;100.00
35577;BME280;21680;52.400;16.920;2023-08-31T07:17:52;99939.27;;;15.32;100.00
35577;BME280;21680;52.400;16.920;2023-08-31T07:20:17;99945.06;;;15.36;100.00
35577;BME280;21680;52.400;16.920;2023-08-31T07:22:42;99947.15;;;15.37;100.00
35577;BME280;21680;52.400;16.920;2023-08-31T07:25:08;99945.49;;;15.40;100.00
35577;BME280;21680;52.400;16.920;2023-08-31T07:27:33;99949.65;;;15.42;100.00
35577;BME280;21680;52.400;16.920;2023-08-31T07:29:58;99946.60;;;15.44;100.00
35577;BME280;21680;52.400;16.920;2023-08-31T07:32:23;99946.62;;;15.51;100.00
35577;BME280;21680;52.400;16.920;2023-08-31T07:34:49;99955.88;;;15.59;100.00
35577;BME280;21680;52.400;16.920;2023-08-31T07:37:14;99960.46;;;15.68;100.00
35577;BME280;21680;52.400;16.920;2023-08-31T07:39:39;99963.45;;;15.76;100.00
35577;BME280;21680;52.400;16.920;2023-08-31T07:42:05;99969.49;;;15.82;100.00
35577;BME280;21680;52.400;16.920;2023-08-31T07:44:30;99968.48;;;15.86;100.00
35577;BME280;21680;52.400;16.920;2023-08-31T07:46:56;99972.67;;;15.92;100.00
35577;BME280;21680;52.400;16.920;2023-08-31T07:49:21;99973.63;;;15.91;100.00
35577;BME280;21680;52.400;16.920;2023-08-31T07:51:46;99972.04;;;15.94;100.00
35577;BME280;21680;52.400;16.920;2023-08-31T07:54:19;99976.33;;;15.97;100.00
35577;BME280;21680;52.400;16.920;2023-08-31T07:56:44;99981.26;;;15.98;100.00
35577;BME280;21680;52.400;16.920;2023-08-31T07:59:10;99987.46;;;15.97;100.00
35577;BME280;21680;52.400;16.920;2023-08-31T08:01:35;99987.95;;;15.97;100.00
35577;BME280;21680;52.400;16.920;2023-08-31T08:04:00;99983.64;;;15.95;100.00
35577;BME280;21680;52.400;16.920;2023-08-31T08:06:26;99983.30;;;15.95;100.00
35577;BME280;21680;52.400;16.920;2023-08-31T08:08:51;99992.80;;;15.98;100.00
35577;BME280;21680;52.400;16.920;2023-08-31T08:11:16;99997.09;;;15.94;100.00
35577;BME280;21680;52.400;16.920;2023-08-31T08:13:41;100006.08;;;15.84;100.00
35577;BME280;21680;52.400;16.920;2023-08-31T08:16:07;100010.86;;;15.73;100.00
35577;BME280;21680;52.400;16.920;2023-08-31T08:18:34;100015.23;;;15.56;100.00
35577;BME280;21680;52.400;16.920;2023-08-31T08:20:59;100020.52;;;15.38;99.98
35577;BME280;21680;52.400;16.920;2023-08-31T08:23:24;100023.39;;;15.21;99.89
35577;BME280;21680;52.400;16.920;2023-08-31T08:25:50;100031.19;;;15.10;100.00
35577;BME280;21680;52.400;16.920;2023-08-31T08:28:15;100027.66;;;15.04;100.00
35577;BME280;21680;52.400;16.920;2023-08-31T08:30:40;100029.63;;;14.99;100.00
35577;BME280;21680;52.400;16.920;2023-08-31T08:33:05;100031.13;;;15.03;100.00
35577;BME280;21680;52.400;16.920;2023-08-31T08:35:30;100032.86;;;15.09;100.00
35577;BME280;21680;52.400;16.920;2023-08-31T08:37:56;100036.15;;;15.16;100.00
35577;BME280;21680;52.400;16.920;2023-08-31T08:40:21;100042.02;;;15.19;100.00
35577;BME280;21680;52.400;16.920;2023-08-31T08:42:47;100039.36;;;15.21;100.00
35577;BME280;21680;52.400;16.920;2023-08-31T08:45:13;100040.73;;;15.24;100.00
35577;BME280;21680;52.400;16.920;2023-08-31T08:47:43;100041.34;;;15.26;100.00
35577;BME280;21680;52.400;16.920;2023-08-31T08:50:12;100040.75;;;15.32;100.00
35577;BME280;21680;52.400;16.920;2023-08-31T08:52:39;100043.27;;;15.37;100.00
35577;BME280;21680;52.400;16.920;2023-08-31T08:55:05;100041.88;;;15.39;100.00
35577;BME280;21680;52.400;16.920;2023-08-31T08:57:31;100046.69;;;15.42;100.00
35577;BME280;21680;52.400;16.920;2023-08-31T08:59:58;100053.55;;;15.39;100.00
35577;BME280;21680;52.400;16.920;2023-08-31T09:02:23;100062.48;;;15.38;100.00
35577;BME280;21680;52.400;16.920;2023-08-31T09:04:49;100065.85;;;15.31;100.00
35577;BME280;21680;52.400;16.920;2023-08-31T09:07:18;100068.52;;;15.29;100.00
35577;BME280;21680;52.400;16.920;2023-08-31T09:09:50;100070.37;;;15.28;100.00
35577;BME280;21680;52.400;16.920;2023-08-31T09:12:16;100072.25;;;15.30;99.71
35577;BME280;21680;52.400;16.920;2023-08-31T09:14:42;100069.17;;;15.30;99.91
35577;BME280;21680;52.400;16.920;2023-08-31T09:17:07;100078.28;;;15.38;99.65
35577;BME280;21680;52.400;16.920;2023-08-31T09:19:32;100073.92;;;15.42;99.41
35577;BME280;21680;52.400;16.920;2023-08-31T09:21:58;100066.68;;;15.49;99.39
35577;BME280;21680;52.400;16.920;2023-08-31T09:24:24;100068.45;;;15.57;99.25
35577;BME280;21680;52.400;16.920;2023-08-31T09:26:58;100068.35;;;15.66;99.16
35577;BME280;21680;52.400;16.920;2023-08-31T09:29:24;100072.80;;;15.76;99.02
35577;BME280;21680;52.400;16.920;2023-08-31T09:31:49;100069.20;;;15.78;98.45
35577;BME280;21680;52.400;16.920;2023-08-31T09:34:16;100071.68;;;15.81;98.38
35577;BME280;21680;52.400;16.920;2023-08-31T09:36:42;100069.95;;;15.87;98.44
35577;BME280;21680;52.400;16.920;2023-08-31T09:39:08;100067.55;;;15.90;97.98
35577;BME280;21680;52.400;16.920;2023-08-31T09:41:35;100077.02;;;15.99;98.06
35577;BME280;21680;52.400;16.920;2023-08-31T09:44:18;100088.63;;;16.05;97.93
35577;BME280;21680;52.400;16.920;2023-08-31T09:46:44;100099.27;;;16.13;97.51
35577;BME280;21680;52.400;16.920;2023-08-31T09:49:15;100101.11;;;16.09;96.27
35577;BME280;21680;52.400;16.920;2023-08-31T09:51:44;100102.02;;;16.05;96.08
35577;BME280;21680;52.400;16.920;2023-08-31T09:54:17;100108.61;;;16.06;95.85
35577;BME280;21680;52.400;16.920;2023-08-31T09:56:44;100115.61;;;16.01;95.26
35577;BME280;21680;52.400;16.920;2023-08-31T09:59:11;100113.21;;;15.90;94.49
35577;BME280;21680;52.400;16.920;2023-08-31T10:01:37;100109.90;;;15.91;95.16
35577;BME280;21680;52.400;16.920;2023-08-31T10:04:04;100119.84;;;16.03;94.94
35577;BME280;21680;52.400;16.920;2023-08-31T10:06:31;100126.59;;;16.04;94.49
35577;BME280;21680;52.400;16.920;2023-08-31T10:08:57;100123.06;;;15.98;93.85
35577;BME280;21680;52.400;16.920;2023-08-31T10:11:25;100115.35;;;15.87;93.18
35577;BME280;21680;52.400;16.920;2023-08-31T10:13:51;100124.09;;;15.81;93.04
35577;BME280;21680;52.400;16.920;2023-08-31T10:16:19;100113.85;;;15.79;92.65
35577;BME280;21680;52.400;16.920;2023-08-31T10:18:45;100104.98;;;15.72;92.29
35577;BME280;21680;52.400;16.920;2023-08-31T10:21:10;100124.51;;;15.71;92.08
35577;BME280;21680;52.400;16.920;2023-08-31T10:23:50;100125.80;;;15.68;91.73
35577;BME280;21680;52.400;16.920;2023-08-31T10:26:27;100107.36;;;15.64;91.84
35577;BME280;21680;52.400;16.920;2023-08-31T10:28:53;100104.86;;;15.69;92.08
35577;BME280;21680;52.400;16.920;2023-08-31T10:31:19;100110.73;;;15.79;92.41
35577;BME280;21680;52.400;16.920;2023-08-31T10:33:55;100112.17;;;15.89;91.99
35577;BME280;21680;52.400;16.920;2023-08-31T10:36:34;100118.86;;;15.94;91.36
35577;BME280;21680;52.400;16.920;2023-08-31T10:39:05;100124.88;;;15.93;90.84
35577;BME280;21680;52.400;16.920;2023-08-31T10:41:35;100128.23;;;15.89;90.50
35577;BME280;21680;52.400;16.920;2023-08-31T10:44:00;100126.00;;;15.87;90.67
35577;BME280;21680;52.400;16.920;2023-08-31T10:51:43;100113.70;;;16.10;91.06
35577;BME280;21680;52.400;16.920;2023-08-31T10:59:20;100095.26;;;16.46;91.42
35577;BME280;21680;52.400;16.920;2023-08-31T11:02:00;100100.09;;;16.56;91.46
35577;BME280;21680;52.400;16.920;2023-08-31T11:04:28;100103.50;;;16.61;91.13
35577;BME280;21680;52.400;16.920;2023-08-31T11:09:39;100109.09;;;16.56;90.36
35577;BME280;21680;52.400;16.920;2023-08-31T11:12:05;100108.08;;;16.53;90.31
35577;BME280;21680;52.400;16.920;2023-08-31T11:14:30;100110.16;;;16.68;91.02
35577;BME280;21680;52.400;16.920;2023-08-31T11:16:55;100113.36;;;16.90;91.15
35577;BME280;21680;52.400;16.920;2023-08-31T11:19:21;100110.41;;;17.04;90.86
35577;BME280;21680;52.400;16.920;2023-08-31T11:21:47;100107.25;;;17.17;91.02
35577;BME280;21680;52.400;16.920;2023-08-31T11:24:12;100110.14;;;17.35;91.09
35577;BME280;21680;52.400;16.920;2023-08-31T11:26:38;100113.26;;;17.43;90.43
35577;BME280;21680;52.400;16.920;2023-08-31T11:29:06;100113.84;;;17.41;90.11
35577;BME280;21680;52.400;16.920;2023-08-31T11:31:33;100114.61;;;17.36;89.58
35577;BME280;21680;52.400;16.920;2023-08-31T11:34:04;100113.02;;;17.31;89.33
35577;BME280;21680;52.400;16.920;2023-08-31T11:36:31;100105.94;;;17.29;88.88
35577;BME280;21680;52.400;16.920;2023-08-31T11:38:56;100106.79;;;17.27;88.04
35577;BME280;21680;52.400;16.920;2023-08-31T11:41:21;100104.27;;;17.27;87.82
35577;BME280;21680;52.400;16.920;2023-08-31T11:43:47;100102.31;;;17.36;87.98
35577;BME280;21680;52.400;16.920;2023-08-31T11:46:13;100102.22;;;17.44;87.72
35577;BME280;21680;52.400;16.920;2023-08-31T11:48:38;100105.86;;;17.55;87.52
35577;BME280;21680;52.400;16.920;2023-08-31T11:51:04;100105.41;;;17.62;87.06
35577;BME280;21680;52.400;16.920;2023-08-31T11:53:29;100108.77;;;17.68;87.07
35577;BME280;21680;52.400;16.920;2023-08-31T11:55:54;100113.15;;;17.72;86.76
35577;BME280;21680;52.400;16.920;2023-08-31T11:58:20;100112.77;;;17.67;86.24
35577;BME280;21680;52.400;16.920;2023-08-31T12:00:54;100110.39;;;17.59;85.95
35577;BME280;21680;52.400;16.920;2023-08-31T12:03:19;100113.20;;;17.55;86.07
35577;BME280;21680;52.400;16.920;2023-08-31T12:05:46;100114.56;;;17.45;85.15
35577;BME280;21680;52.400;16.920;2023-08-31T12:08:12;100123.81;;;17.34;85.25
35577;BME280;21680;52.400;16.920;2023-08-31T12:10:41;100127.36;;;17.00;84.81
35577;BME280;21680;52.400;16.920;2023-08-31T12:13:12;100131.61;;;16.42;84.02
35577;BME280;21680;52.400;16.920;2023-08-31T12:15:40;100144.54;;;15.63;83.67
35577;BME280;21680;52.400;16.920;2023-08-31T12:18:09;100144.70;;;14.93;84.23
35577;BME280;21680;52.400;16.920;2023-08-31T12:20:43;100121.77;;;14.55;85.38
35577;BME280;21680;52.400;16.920;2023-08-31T12:23:08;100115.95;;;14.18;85.47
35577;BME280;21680;52.400;16.920;2023-08-31T12:25:35;100109.33;;;13.82;86.09
35577;BME280;21680;52.400;16.920;2023-08-31T12:28:01;100121.25;;;13.67;86.84
35577;BME280;21680;52.400;16.920;2023-08-31T12:30:26;100126.10;;;13.56;87.43
35577;BME280;21680;52.400;16.920;2023-08-31T12:32:51;100134.85;;;13.49;88.16
35577;BME280;21680;52.400;16.920;2023-08-31T12:35:17;100147.07;;;13.37;88.54
35577;BME280;21680;52.400;16.920;2023-08-31T12:37:42;100159.92;;;13.29;88.90
35577;BME280;21680;52.400;16.920;2023-08-31T12:40:08;100167.52;;;13.26;89.51
35577;BME280;21680;52.400;16.920;2023-08-31T12:42:35;100161.20;;;13.26;89.95
35577;BME280;21680;52.400;16.920;2023-08-31T12:45:01;100158.96;;;13.36;90.43
35577;BME280;21680;52.400;16.920;2023-08-31T12:47:26;100156.21;;;13.49;90.86
35577;BME280;21680;52.400;16.920;2023-08-31T12:49:51;100152.61;;;13.52;91.11
35577;BME280;21680;52.400;16.920;2023-08-31T12:52:16;100152.30;;;13.79;92.07
35577;BME280;21680;52.400;16.920;2023-08-31T12:54:41;100155.23;;;14.24;92.76